createdAt,value
2019-04-16T00:02:11.586Z,24.27
2019-04-16T00:05:15.169Z,24.10
2019-04-16T00:07:52.249Z,23.20
2019-04-16T00:10:55.752Z,24.93
2019-04-16T00:13:38.134Z,23.60
2019-04-16T00:16:07.579Z,25.00
2019-04-16T00:18:37.433Z,24.60
2019-04-16T00:21:41.303Z,25.00
2019-04-16T00:24:25.496Z,24.13
2019-04-16T00:26:57.987Z,23.50
2019-04-16T00:29:26.157Z,24.37
2019-04-16T00:32:12.140Z,25.13
2019-04-16T00:34:44.557Z,24.87
2019-04-16T00:37:12.680Z,25.23
2019-04-16T00:39:41.929Z,23.03
2019-04-16T00:42:11.718Z,24.23
2019-04-16T00:44:40.886Z,23.33
2019-04-16T00:47:10.128Z,24.20
2019-04-16T00:49:39.400Z,23.17
2019-04-16T00:52:08.714Z,23.50
2019-04-16T00:54:39.349Z,23.33
2019-04-16T00:57:09.280Z,24.27
2019-04-16T00:59:38.908Z,23.87
2019-04-16T01:02:08.098Z,23.90
2019-04-16T01:04:37.274Z,23.67
2019-04-16T01:07:06.827Z,23.50
2019-04-16T01:09:36.090Z,23.50
2019-04-16T01:12:05.278Z,23.27
2019-04-16T01:14:34.548Z,24.00
2019-04-16T01:17:05.194Z,23.73
2019-04-16T01:19:35.025Z,24.73
2019-04-16T01:22:04.175Z,25.50
2019-04-16T01:24:33.528Z,24.93
2019-04-16T01:27:02.825Z,24.80
2019-04-16T01:29:33.834Z,23.80
2019-04-16T01:32:32.327Z,23.73
2019-04-16T01:35:11.674Z,25.27
2019-04-16T01:37:59.900Z,25.13
2019-04-16T01:40:37.850Z,24.07
2019-04-16T01:43:07.033Z,25.80
2019-04-16T01:45:36.614Z,25.20
2019-04-16T01:48:08.041Z,25.10
2019-04-16T01:50:37.282Z,25.80
2019-04-16T01:53:06.638Z,25.83
2019-04-16T01:55:35.838Z,24.83
2019-04-16T01:58:05.034Z,23.77
2019-04-16T02:00:36.440Z,25.10
2019-04-16T02:03:05.233Z,25.43
2019-04-16T02:05:34.420Z,24.97
2019-04-16T02:08:03.907Z,25.57
2019-04-16T02:10:35.440Z,25.13
2019-04-16T02:13:04.959Z,24.47
2019-04-16T02:15:34.223Z,25.23
2019-04-16T02:18:03.996Z,25.57
2019-04-16T02:20:33.498Z,25.37
2019-04-16T02:23:02.778Z,25.37
2019-04-16T02:25:32.383Z,24.33
2019-04-16T02:28:01.863Z,25.53
2019-04-16T02:30:37.367Z,25.20
2019-04-16T02:33:01.996Z,25.47
2019-04-16T02:35:31.270Z,24.77
2019-04-16T02:38:01.137Z,25.63
2019-04-16T02:40:30.365Z,24.60
2019-04-16T02:43:04.238Z,25.97
2019-04-16T02:45:30.890Z,24.60
2019-04-16T02:48:00.345Z,25.27
2019-04-16T02:50:47.699Z,24.67
2019-04-16T02:53:38.795Z,26.03
2019-04-16T02:56:51.494Z,24.93
2019-04-16T02:59:22.032Z,24.97
2019-04-16T03:02:13.943Z,25.53
2019-04-16T03:04:51.268Z,25.07
2019-04-16T03:07:20.442Z,25.57
2019-04-16T03:10:00.739Z,25.30
2019-04-16T03:12:21.701Z,24.77
2019-04-16T03:14:51.777Z,24.97
2019-04-16T03:17:34.960Z,24.10
2019-04-16T03:20:05.520Z,25.87
2019-04-16T03:22:34.804Z,24.87
2019-04-16T03:25:04.217Z,24.07
2019-04-16T03:27:33.569Z,25.50
2019-04-16T03:30:06.115Z,24.03
2019-04-16T03:32:47.154Z,25.17
2019-04-16T03:35:16.991Z,25.63
2019-04-16T03:37:46.550Z,24.60
2019-04-16T03:40:18.498Z,24.47
2019-04-16T03:42:46.947Z,23.70
2019-04-16T03:45:16.396Z,24.37
2019-04-16T03:47:50.978Z,23.07
2019-04-16T03:50:17.317Z,24.53
2019-04-16T03:52:46.939Z,25.13
2019-04-16T03:55:16.368Z,24.90
2019-04-16T03:57:46.276Z,24.80
2019-04-16T04:00:16.279Z,24.80
2019-04-16T04:02:45.509Z,24.20
2019-04-16T04:05:15.082Z,23.13
2019-04-16T04:07:45.095Z,25.77
2019-04-16T04:10:29.023Z,25.13
2019-04-16T04:12:46.591Z,23.80
2019-04-16T04:15:15.979Z,24.27
2019-04-16T04:17:45.513Z,24.10
2019-04-16T04:20:18.410Z,24.13
2019-04-16T04:22:45.580Z,25.03
2019-04-16T04:25:14.866Z,23.97
2019-04-16T04:27:46.788Z,24.23
2019-04-16T04:30:16.784Z,24.03
2019-04-16T04:32:47.630Z,23.53
2019-04-16T04:35:20.235Z,24.43
2019-04-16T04:37:48.070Z,24.37
2019-04-16T04:40:17.666Z,24.40
2019-04-16T04:42:46.937Z,23.57
2019-04-16T04:45:16.107Z,24.53
2019-04-16T04:47:45.425Z,24.70
2019-04-16T04:50:14.955Z,24.20
2019-04-16T04:52:45.973Z,23.93
2019-04-16T04:55:15.640Z,26.17
2019-04-16T04:57:44.938Z,24.17
2019-04-16T05:00:14.814Z,24.93
2019-04-16T05:02:44.450Z,24.83
2019-04-16T05:05:32.841Z,23.77
2019-04-16T05:08:02.080Z,24.93
2019-04-16T05:10:31.565Z,24.90
2019-04-16T05:13:00.719Z,24.57
2019-04-16T05:15:30.362Z,25.80
2019-04-16T05:17:59.670Z,26.13
2019-04-16T05:20:29.935Z,26.80
2019-04-16T05:22:59.525Z,25.23
2019-04-16T05:25:33.028Z,25.40
2019-04-16T05:28:00.296Z,25.63
2019-04-16T05:30:29.475Z,26.77
2019-04-16T05:32:58.644Z,28.27
2019-04-16T05:35:28.558Z,26.90
2019-04-16T05:37:57.722Z,27.00
2019-04-16T05:40:28.229Z,26.93
2019-04-16T05:42:58.892Z,26.73
2019-04-16T05:45:28.832Z,26.90
2019-04-16T05:47:58.042Z,26.60
2019-04-16T05:50:29.695Z,25.90
2019-04-16T05:52:58.609Z,25.77
2019-04-16T05:55:49.400Z,26.10
2019-04-16T05:58:18.125Z,25.67
2019-04-16T06:00:57.999Z,25.40
2019-04-16T06:03:27.585Z,23.47
2019-04-16T06:05:59.343Z,24.27
2019-04-16T06:08:28.004Z,24.43
2019-04-16T06:10:57.650Z,24.10
2019-04-16T06:13:52.445Z,23.73
2019-04-16T06:16:41.923Z,24.87
2019-04-16T06:19:46.491Z,23.30
2019-04-16T06:22:47.501Z,22.37
2019-04-16T06:25:48.368Z,22.67
2019-04-16T06:28:39.783Z,22.30
2019-04-16T06:31:39.344Z,22.67
2019-04-16T06:34:24.308Z,21.43
2019-04-16T06:37:01.917Z,21.63
2019-04-16T06:39:38.619Z,22.70
2019-04-16T06:42:32.815Z,22.50
2019-04-16T06:45:05.921Z,22.83
2019-04-16T06:47:57.475Z,22.77
2019-04-16T06:50:55.049Z,22.03
2019-04-16T06:53:46.082Z,22.60
2019-04-16T06:56:40.407Z,20.73
2019-04-16T06:59:30.913Z,21.40
2019-04-16T07:02:18.183Z,21.97
2019-04-16T07:05:01.250Z,21.80
2019-04-16T07:07:45.886Z,22.07
2019-04-16T07:10:15.335Z,21.03
2019-04-16T07:12:44.583Z,21.87
2019-04-16T07:15:14.447Z,21.13
2019-04-16T07:17:44.439Z,22.80
2019-04-16T07:20:14.318Z,21.10
2019-04-16T07:22:44.281Z,21.07
2019-04-16T07:25:13.987Z,21.67
2019-04-16T07:27:57.424Z,22.20
2019-04-16T07:30:30.941Z,23.00
2019-04-16T07:33:18.509Z,22.40
2019-04-16T07:36:03.521Z,22.97
2019-04-16T07:38:37.379Z,22.67
2019-04-16T07:41:30.725Z,21.67
2019-04-16T07:44:25.287Z,22.17
2019-04-16T07:47:04.923Z,21.83
2019-04-16T07:49:38.749Z,22.27
2019-04-16T07:52:20.219Z,21.90
2019-04-16T07:55:14.660Z,21.67
2019-04-16T07:57:43.891Z,22.43
2019-04-16T08:00:14.525Z,21.57
2019-04-16T08:02:43.721Z,21.93
2019-04-16T08:05:12.905Z,23.03
2019-04-16T08:07:42.083Z,22.60
2019-04-16T08:10:11.968Z,23.07
2019-04-16T08:12:45.182Z,23.33
2019-04-16T08:15:15.495Z,23.73
2019-04-16T08:17:44.938Z,22.47
2019-04-16T08:20:19.805Z,22.33
2019-04-16T08:22:47.641Z,21.60
2019-04-16T08:25:22.283Z,22.87
2019-04-16T08:27:54.056Z,22.30
2019-04-16T08:30:23.064Z,21.37
2019-04-16T08:32:52.245Z,21.57
2019-04-16T08:35:21.488Z,22.03
2019-04-16T08:37:51.237Z,22.27
2019-04-16T08:40:20.866Z,21.73
2019-04-16T08:42:50.032Z,21.97
2019-04-16T08:45:20.693Z,22.57
2019-04-16T08:47:50.162Z,23.23
2019-04-16T08:50:19.405Z,20.97
2019-04-16T08:52:48.587Z,20.97
2019-04-16T08:55:20.525Z,22.53
2019-04-16T08:57:48.844Z,21.43
2019-04-16T09:00:18.165Z,20.07
2019-04-16T09:02:47.354Z,20.53
2019-04-16T09:05:16.844Z,19.73
2019-04-16T09:07:50.614Z,19.67
2019-04-16T09:10:23.359Z,21.73
2019-04-16T09:13:02.419Z,20.73
2019-04-16T09:15:27.586Z,20.60
2019-04-16T09:18:25.253Z,21.33
2019-04-16T09:20:54.414Z,20.27
2019-04-16T09:23:26.684Z,20.60
2019-04-16T09:26:23.919Z,20.47
2019-04-16T09:29:06.578Z,21.77
2019-04-16T09:31:38.957Z,20.50
2019-04-16T09:34:27.236Z,21.53
2019-04-16T09:37:18.246Z,21.10
2019-04-16T09:40:16.556Z,21.60
2019-04-16T09:42:37.078Z,20.70
2019-04-16T09:45:06.568Z,23.07
2019-04-16T09:47:35.820Z,22.00
2019-04-16T09:50:09.789Z,20.70
2019-04-16T09:52:37.022Z,21.07
2019-04-16T09:55:06.723Z,22.40
2019-04-16T09:57:35.941Z,21.80
2019-04-16T10:00:09.026Z,21.80
2019-04-16T10:02:39.102Z,21.53
2019-04-16T10:05:09.387Z,22.27
2019-04-16T10:07:40.264Z,21.30
2019-04-16T10:10:09.551Z,20.53
2019-04-16T10:12:38.788Z,20.90
2019-04-16T10:15:08.533Z,21.47
2019-04-16T10:17:37.737Z,20.40
2019-04-16T10:20:07.450Z,20.47
2019-04-16T10:22:36.933Z,21.97
2019-04-16T10:25:11.509Z,22.27
2019-04-16T10:27:42.998Z,21.50
2019-04-16T10:30:30.293Z,20.97
2019-04-16T10:32:59.621Z,20.27
2019-04-16T10:35:29.246Z,19.63
2019-04-16T10:38:02.165Z,19.67
2019-04-16T10:40:39.861Z,19.87
2019-04-16T10:43:26.716Z,18.93
2019-04-16T10:46:17.765Z,18.67
2019-04-16T10:49:18.251Z,19.50
2019-04-16T10:52:06.446Z,19.17
2019-04-16T10:54:39.912Z,19.80
2019-04-16T10:57:28.186Z,20.53
2019-04-16T11:00:18.017Z,20.30
2019-04-16T11:02:58.318Z,19.63
2019-04-16T11:05:36.866Z,20.83
2019-04-16T11:08:07.505Z,20.80
2019-04-16T11:10:37.476Z,19.47
2019-04-16T11:13:08.504Z,20.57
2019-04-16T11:15:38.219Z,21.13
2019-04-16T11:18:07.567Z,19.90
2019-04-16T11:20:36.813Z,19.13
2019-04-16T11:23:07.513Z,19.97
2019-04-16T11:25:37.324Z,20.77
2019-04-16T11:28:06.636Z,19.50
2019-04-16T11:30:39.114Z,19.83
2019-04-16T11:33:08.375Z,19.25
2019-04-16T11:35:37.717Z,19.40
2019-04-16T11:38:07.693Z,18.92
2019-04-16T11:40:36.944Z,19.15
2019-04-16T11:43:06.787Z,19.70
2019-04-16T11:45:36.445Z,21.10
2019-04-16T11:48:06.118Z,20.30
2019-04-16T11:50:36.364Z,21.13
2019-04-16T11:53:05.744Z,20.80
2019-04-16T11:55:34.927Z,20.27
2019-04-16T11:58:07.670Z,20.40
2019-04-16T12:00:51.015Z,19.60
2019-04-16T12:03:47.181Z,20.37
2019-04-16T12:06:34.114Z,20.67
2019-04-16T12:09:22.589Z,20.73
2019-04-16T12:11:59.223Z,20.90
2019-04-16T12:14:35.148Z,20.37
2019-04-16T12:17:13.622Z,19.30
2019-04-16T12:19:53.941Z,20.17
2019-04-16T12:22:27.738Z,20.67
2019-04-16T12:25:15.690Z,20.67
2019-04-16T12:28:06.332Z,20.53
2019-04-16T12:31:01.842Z,22.23
2019-04-16T12:33:49.622Z,21.93
2019-04-16T12:36:33.117Z,22.13
2019-04-16T12:39:21.398Z,22.27
2019-04-16T12:42:19.322Z,21.27
2019-04-16T12:45:01.838Z,21.97
2019-04-16T12:47:58.981Z,22.07
2019-04-16T12:50:52.158Z,22.33
2019-04-16T12:53:36.403Z,22.97
2019-04-16T12:56:24.647Z,23.70
2019-04-16T12:59:13.657Z,23.77
2019-04-16T13:02:00.757Z,23.47
2019-04-16T13:05:04.879Z,23.80
2019-04-16T13:07:48.611Z,24.87
2019-04-16T13:10:23.357Z,23.80
2019-04-16T13:13:15.065Z,23.90
2019-04-16T13:15:52.257Z,23.37
2019-04-16T13:18:46.584Z,24.87
2019-04-16T13:21:34.788Z,24.17
2019-04-16T13:24:17.609Z,24.10
2019-04-16T13:27:09.291Z,24.90
2019-04-16T13:29:38.902Z,24.23
2019-04-16T13:32:08.412Z,24.47
2019-04-16T13:34:37.911Z,24.83
2019-04-16T13:37:07.524Z,25.03
2019-04-16T13:39:50.449Z,23.23
2019-04-16T13:42:19.692Z,23.83
2019-04-16T13:44:53.560Z,23.00
2019-04-16T13:47:23.166Z,23.80
2019-04-16T13:50:09.374Z,23.03
2019-04-16T13:52:39.619Z,23.50
2019-04-16T13:55:23.445Z,24.67
2019-04-16T13:58:00.813Z,23.83
2019-04-16T14:00:38.349Z,24.57
2019-04-16T14:03:13.451Z,24.17
2019-04-16T14:05:42.876Z,24.13
2019-04-16T14:08:12.207Z,23.23
2019-04-16T14:10:43.314Z,25.90
2019-04-16T14:13:13.679Z,24.03
2019-04-16T14:15:44.906Z,24.43
2019-04-16T14:18:14.167Z,24.60
2019-04-16T14:20:43.428Z,23.80
2019-04-16T14:23:12.619Z,24.23
2019-04-16T14:25:42.233Z,24.93
2019-04-16T14:28:11.956Z,24.53
2019-04-16T14:30:44.999Z,24.07
2019-04-16T14:33:17.273Z,24.87
2019-04-16T14:35:46.921Z,25.30
2019-04-16T14:38:19.434Z,25.33
2019-04-16T14:40:48.691Z,26.03
2019-04-16T14:43:21.600Z,26.17
2019-04-16T14:46:10.027Z,26.33
2019-04-16T14:48:45.515Z,25.80
2019-04-16T14:51:10.400Z,26.50
2019-04-16T14:53:51.689Z,25.93
2019-04-16T14:56:40.284Z,26.00
2019-04-16T14:59:35.251Z,25.30
2019-04-16T15:02:22.441Z,25.57
2019-04-16T15:05:15.466Z,25.43
2019-04-16T15:08:13.513Z,24.20
2019-04-16T15:11:01.814Z,24.20
2019-04-16T15:13:52.979Z,24.97
2019-04-16T15:16:40.335Z,25.50
2019-04-16T15:19:27.207Z,23.87
2019-04-16T15:22:00.674Z,23.80
2019-04-16T15:24:52.441Z,23.23
2019-04-16T15:27:40.997Z,23.37
2019-04-16T15:30:29.667Z,23.13
2019-04-16T15:33:35.728Z,22.80
2019-04-16T15:36:25.435Z,22.50
2019-04-16T15:38:58.957Z,22.43
2019-04-16T15:42:00.207Z,23.13
2019-04-16T15:44:37.121Z,23.10
2019-04-16T15:47:25.395Z,21.67
2019-04-16T15:49:58.683Z,21.93
2019-04-16T15:52:46.346Z,23.43
2019-04-16T15:55:41.437Z,23.03
2019-04-16T15:58:33.283Z,21.70
2019-04-16T16:01:30.571Z,22.47
2019-04-16T16:04:15.435Z,21.17
2019-04-16T16:07:07.787Z,23.07
2019-04-16T16:09:52.597Z,22.73
2019-04-16T16:12:23.958Z,22.43
2019-04-16T16:14:53.503Z,22.37
2019-04-16T16:17:23.404Z,23.10
2019-04-16T16:19:52.835Z,23.63
2019-04-16T16:22:22.110Z,22.70
2019-04-16T16:24:51.420Z,23.83
2019-04-16T16:27:20.649Z,22.63
2019-04-16T16:29:50.218Z,24.00
2019-04-16T16:32:19.755Z,21.77
2019-04-16T16:34:49.021Z,22.67
2019-04-16T16:37:18.299Z,21.83
2019-04-16T16:39:47.581Z,22.50
2019-04-16T16:42:16.861Z,22.57
2019-04-16T16:44:46.092Z,22.43
2019-04-16T16:47:34.629Z,21.80
2019-04-16T16:50:07.519Z,21.80
2019-04-16T16:53:06.855Z,22.07
2019-04-16T16:55:42.604Z,23.50
2019-04-16T16:58:24.723Z,23.23
2019-04-16T17:01:14.059Z,22.13
2019-04-16T17:03:58.407Z,21.67
2019-04-16T17:06:28.391Z,21.90
2019-04-16T17:08:57.651Z,21.70
2019-04-16T17:11:27.257Z,22.00
2019-04-16T17:13:58.082Z,23.13
2019-04-16T17:16:28.168Z,22.40
2019-04-16T17:18:57.641Z,22.10
2019-04-16T17:21:27.160Z,22.80
2019-04-16T17:23:56.427Z,23.77
2019-04-16T17:26:25.603Z,23.23
2019-04-16T17:28:54.917Z,24.53
2019-04-16T17:31:24.978Z,23.87
2019-04-16T17:33:54.591Z,24.53
2019-04-16T17:36:23.885Z,25.90
2019-04-16T17:38:53.169Z,25.20
2019-04-16T17:41:26.503Z,24.30
2019-04-16T17:44:05.001Z,25.67
2019-04-16T17:47:24.345Z,25.07
2019-04-16T17:49:56.159Z,26.17
2019-04-16T17:52:50.397Z,26.13
2019-04-16T17:55:42.037Z,26.17
2019-04-16T17:58:36.289Z,26.60
2019-04-16T18:01:26.153Z,27.60
2019-04-16T18:04:01.846Z,25.50
2019-04-16T18:06:50.393Z,26.03
2019-04-16T18:09:38.667Z,28.97
2019-04-16T18:12:26.958Z,30.53
2019-04-16T18:15:11.949Z,30.83
2019-04-16T18:17:55.446Z,29.87
2019-04-16T18:20:33.613Z,31.17
2019-04-16T18:23:27.697Z,30.87
2019-04-16T18:26:21.544Z,31.17
2019-04-16T18:29:11.768Z,30.70
2019-04-16T18:31:57.624Z,29.97
2019-04-16T18:35:04.257Z,32.17
2019-04-16T18:37:56.347Z,30.97
2019-04-16T18:40:32.037Z,31.30
2019-04-16T18:43:16.645Z,31.00
2019-04-16T18:46:05.151Z,32.10
2019-04-16T18:48:36.561Z,32.13
2019-04-16T18:51:05.949Z,32.90
2019-04-16T18:53:35.199Z,33.23
2019-04-16T18:56:04.480Z,32.80
2019-04-16T18:58:34.065Z,32.33
2019-04-16T19:01:10.063Z,33.20
2019-04-16T19:03:39.282Z,32.70
2019-04-16T19:06:08.982Z,34.70
2019-04-16T19:08:41.897Z,32.63
2019-04-16T19:11:09.214Z,33.20
2019-04-16T19:13:38.525Z,35.07
2019-04-16T19:16:07.759Z,35.37
2019-04-16T19:18:37.710Z,33.87
2019-04-16T19:21:06.980Z,33.53
2019-04-16T19:23:36.243Z,33.30
2019-04-16T19:26:06.175Z,34.53
2019-04-16T19:28:36.256Z,33.43
2019-04-16T19:31:06.889Z,34.73
2019-04-16T19:33:38.316Z,36.27
2019-04-16T19:36:07.114Z,34.30
2019-04-16T19:38:39.378Z,34.57
2019-04-16T19:41:07.439Z,36.67
2019-04-16T19:43:36.707Z,34.83
2019-04-16T19:46:06.187Z,35.77
2019-04-16T19:48:36.442Z,34.37
2019-04-16T19:51:07.323Z,35.27
2019-04-16T19:53:37.207Z,37.27
2019-04-16T19:56:06.664Z,39.83
2019-04-16T19:58:36.021Z,38.93
2019-04-16T20:01:06.160Z,38.27
2019-04-16T20:03:35.553Z,39.57
2019-04-16T20:06:05.358Z,38.43
2019-04-16T20:08:39.544Z,40.13
2019-04-16T20:11:05.977Z,40.63
2019-04-16T20:13:35.300Z,40.83
2019-04-16T20:16:04.552Z,41.27
2019-04-16T20:18:33.804Z,42.27
2019-04-16T20:21:02.993Z,41.73
2019-04-16T20:23:32.198Z,41.23
2019-04-16T20:26:01.579Z,41.60
2019-04-16T20:28:30.844Z,40.47
2019-04-16T20:31:03.516Z,40.20
2019-04-16T20:33:31.009Z,41.07
2019-04-16T20:36:00.196Z,41.13
2019-04-16T20:38:30.159Z,41.70
2019-04-16T20:40:59.891Z,41.40
2019-04-16T20:43:29.093Z,40.93
2019-04-16T20:45:58.663Z,39.37
2019-04-16T20:48:27.855Z,41.43
2019-04-16T20:50:59.481Z,38.60
2019-04-16T20:53:28.158Z,39.53
2019-04-16T20:55:58.011Z,38.53
2019-04-16T20:58:30.629Z,39.27
2019-04-16T21:00:59.390Z,39.43
2019-04-16T21:03:31.127Z,37.70
2019-04-16T21:06:00.204Z,38.77
2019-04-16T21:08:29.615Z,38.60
2019-04-16T21:11:00.047Z,40.27
2019-04-16T21:13:29.363Z,41.03
2019-04-16T21:16:01.689Z,40.20
2019-04-16T21:18:29.573Z,40.20
2019-04-16T21:20:58.849Z,42.17
2019-04-16T21:23:28.016Z,39.90
2019-04-16T21:25:57.538Z,41.83
2019-04-16T21:28:34.361Z,40.20
2019-04-16T21:31:08.298Z,41.53
2019-04-16T21:33:49.184Z,41.33
2019-04-16T21:36:25.543Z,41.63
2019-04-16T21:39:08.549Z,40.53
2019-04-16T21:41:38.113Z,40.77
2019-04-16T21:44:11.495Z,39.60
2019-04-16T21:46:38.620Z,41.30
2019-04-16T21:49:08.984Z,39.90
2019-04-16T21:51:57.951Z,40.07
2019-04-16T21:54:30.499Z,41.27
2019-04-16T21:56:58.565Z,41.23
2019-04-16T21:59:27.754Z,42.30
2019-04-16T22:01:57.352Z,43.00
2019-04-16T22:04:26.902Z,44.63
2019-04-16T22:06:56.154Z,45.53
2019-04-16T22:09:25.324Z,46.33
2019-04-16T22:11:54.560Z,45.57
2019-04-16T22:14:24.168Z,45.00
2019-04-16T22:16:53.415Z,47.03
2019-04-16T22:19:22.679Z,46.97
2019-04-16T22:21:52.258Z,46.87
2019-04-16T22:24:22.989Z,47.50
2019-04-16T22:27:11.877Z,48.20
2019-04-16T22:29:41.434Z,48.03
2019-04-16T22:32:10.772Z,49.33
2019-04-16T22:34:40.030Z,50.70
2019-04-16T22:37:10.021Z,48.20
2019-04-16T22:39:56.902Z,48.27
2019-04-16T22:42:47.901Z,51.67
2019-04-16T22:45:45.498Z,48.93
2019-04-16T22:48:14.768Z,49.97
2019-04-16T22:50:44.050Z,49.57
2019-04-16T22:53:16.914Z,52.53
2019-04-16T22:55:44.151Z,50.47
2019-04-16T22:58:32.636Z,52.47
2019-04-16T23:01:07.778Z,51.50
2019-04-16T23:03:37.164Z,53.57
2019-04-16T23:06:08.071Z,53.60
2019-04-16T23:08:37.474Z,53.70
2019-04-16T23:11:07.043Z,57.67
2019-04-16T23:13:36.332Z,54.10
2019-04-16T23:16:05.669Z,53.77
2019-04-16T23:18:34.839Z,53.13
2019-04-16T23:21:09.035Z,53.03
2019-04-16T23:23:35.329Z,52.27
2019-04-16T23:26:04.468Z,52.43
2019-04-16T23:28:33.750Z,51.13
2019-04-16T23:31:03.019Z,53.33
2019-04-16T23:33:32.966Z,53.00
2019-04-16T23:36:03.236Z,52.90
2019-04-16T23:38:32.541Z,53.43
2019-04-16T23:41:02.316Z,53.17
2019-04-16T23:43:39.484Z,51.87
2019-04-16T23:46:26.467Z,54.27
2019-04-16T23:49:16.510Z,53.07
2019-04-16T23:52:02.999Z,54.90
2019-04-16T23:54:36.929Z,54.57
2019-04-16T23:57:11.447Z,55.03
2019-04-16T23:59:50.168Z,56.73
